sensor_id;sensor_type;location;lat;lon;timestamp;P1;durP1;ratioP1;P2;durP2;ratioP2
22614;SDS011;11474;50.790;0.298;2023-05-13T00:00:46;37.83;;;20.45;;
22614;SDS011;11474;50.790;0.298;2023-05-13T00:03:12;37.10;;;20.10;;
22614;SDS011;11474;50.790;0.298;2023-05-13T00:05:38;37.05;;;20.17;;
22614;SDS011;11474;50.790;0.298;2023-05-13T00:08:04;40.42;;;20.50;;
22614;SDS011;11474;50.790;0.298;2023-05-13T00:10:31;36.25;;;19.67;;
22614;SDS011;11474;50.790;0.298;2023-05-13T00:12:58;35.35;;;20.33;;
22614;SDS011;11474;50.790;0.298;2023-05-13T00:15:24;34.13;;;19.65;;
22614;SDS011;11474;50.790;0.298;2023-05-13T00:17:50;39.95;;;19.77;;
22614;SDS011;11474;50.790;0.298;2023-05-13T00:20:16;32.28;;;19.55;;
22614;SDS011;11474;50.790;0.298;2023-05-13T00:22:42;33.85;;;19.83;;
22614;SDS011;11474;50.790;0.298;2023-05-13T00:25:09;35.03;;;19.48;;
22614;SDS011;11474;50.790;0.298;2023-05-13T00:27:35;33.00;;;19.67;;
22614;SDS011;11474;50.790;0.298;2023-05-13T00:30:01;36.17;;;19.80;;
22614;SDS011;11474;50.790;0.298;2023-05-13T00:32:27;36.25;;;19.15;;
22614;SDS011;11474;50.790;0.298;2023-05-13T00:34:53;34.08;;;19.45;;
22614;SDS011;11474;50.790;0.298;2023-05-13T00:37:19;35.35;;;18.60;;
22614;SDS011;11474;50.790;0.298;2023-05-13T00:39:45;36.58;;;19.17;;
22614;SDS011;11474;50.790;0.298;2023-05-13T00:42:11;36.30;;;18.67;;
22614;SDS011;11474;50.790;0.298;2023-05-13T00:44:37;36.40;;;19.48;;
22614;SDS011;11474;50.790;0.298;2023-05-13T00:47:04;35.38;;;19.98;;
22614;SDS011;11474;50.790;0.298;2023-05-13T00:49:31;35.80;;;18.63;;
22614;SDS011;11474;50.790;0.298;2023-05-13T00:51:57;31.42;;;18.73;;
22614;SDS011;11474;50.790;0.298;2023-05-13T00:54:24;35.25;;;18.63;;
22614;SDS011;11474;50.790;0.298;2023-05-13T00:56:50;32.93;;;18.63;;
22614;SDS011;11474;50.790;0.298;2023-05-13T00:59:20;30.77;;;17.80;;
22614;SDS011;11474;50.790;0.298;2023-05-13T01:01:58;31.00;;;18.00;;
22614;SDS011;11474;50.790;0.298;2023-05-13T01:07:16;34.17;;;18.98;;
22614;SDS011;11474;50.790;0.298;2023-05-13T01:12:31;39.35;;;19.20;;
22614;SDS011;11474;50.790;0.298;2023-05-13T01:15:08;29.17;;;19.83;;
22614;SDS011;11474;50.790;0.298;2023-05-13T01:17:36;33.53;;;19.23;;
22614;SDS011;11474;50.790;0.298;2023-05-13T01:20:04;32.43;;;18.30;;
22614;SDS011;11474;50.790;0.298;2023-05-13T01:22:30;34.53;;;18.67;;
22614;SDS011;11474;50.790;0.298;2023-05-13T01:24:56;35.20;;;18.13;;
22614;SDS011;11474;50.790;0.298;2023-05-13T01:27:22;32.95;;;18.75;;
22614;SDS011;11474;50.790;0.298;2023-05-13T01:29:48;31.88;;;18.50;;
22614;SDS011;11474;50.790;0.298;2023-05-13T01:32:15;35.00;;;19.92;;
22614;SDS011;11474;50.790;0.298;2023-05-13T01:34:41;31.95;;;19.75;;
22614;SDS011;11474;50.790;0.298;2023-05-13T01:37:08;32.90;;;19.08;;
22614;SDS011;11474;50.790;0.298;2023-05-13T01:39:35;35.53;;;20.05;;
22614;SDS011;11474;50.790;0.298;2023-05-13T01:42:02;35.17;;;20.35;;
22614;SDS011;11474;50.790;0.298;2023-05-13T01:44:28;36.05;;;20.08;;
22614;SDS011;11474;50.790;0.298;2023-05-13T01:46:55;33.60;;;20.27;;
22614;SDS011;11474;50.790;0.298;2023-05-13T01:49:21;34.25;;;20.02;;
22614;SDS011;11474;50.790;0.298;2023-05-13T01:51:47;38.65;;;19.02;;
22614;SDS011;11474;50.790;0.298;2023-05-13T01:54:13;32.60;;;19.27;;
22614;SDS011;11474;50.790;0.298;2023-05-13T01:56:39;32.20;;;19.02;;
22614;SDS011;11474;50.790;0.298;2023-05-13T01:59:06;32.78;;;19.20;;
22614;SDS011;11474;50.790;0.298;2023-05-13T02:01:32;29.95;;;18.23;;
22614;SDS011;11474;50.790;0.298;2023-05-13T02:03:58;29.20;;;18.17;;
22614;SDS011;11474;50.790;0.298;2023-05-13T02:06:24;31.35;;;18.90;;
22614;SDS011;11474;50.790;0.298;2023-05-13T02:08:51;29.50;;;18.15;;
22614;SDS011;11474;50.790;0.298;2023-05-13T02:11:17;30.30;;;18.10;;
22614;SDS011;11474;50.790;0.298;2023-05-13T02:13:43;32.08;;;18.27;;
22614;SDS011;11474;50.790;0.298;2023-05-13T02:16:15;31.83;;;18.55;;
22614;SDS011;11474;50.790;0.298;2023-05-13T02:18:42;35.15;;;18.52;;
22614;SDS011;11474;50.790;0.298;2023-05-13T02:21:08;31.23;;;19.02;;
22614;SDS011;11474;50.790;0.298;2023-05-13T02:23:34;35.60;;;19.38;;
22614;SDS011;11474;50.790;0.298;2023-05-13T02:26:01;36.42;;;18.33;;
22614;SDS011;11474;50.790;0.298;2023-05-13T02:28:27;27.30;;;17.92;;
22614;SDS011;11474;50.790;0.298;2023-05-13T02:30:53;32.15;;;19.17;;
22614;SDS011;11474;50.790;0.298;2023-05-13T02:33:19;34.00;;;19.10;;
22614;SDS011;11474;50.790;0.298;2023-05-13T02:35:45;29.08;;;18.05;;
22614;SDS011;11474;50.790;0.298;2023-05-13T02:38:11;29.17;;;17.67;;
22614;SDS011;11474;50.790;0.298;2023-05-13T02:40:37;25.80;;;18.27;;
22614;SDS011;11474;50.790;0.298;2023-05-13T02:43:03;30.63;;;18.38;;
22614;SDS011;11474;50.790;0.298;2023-05-13T02:45:29;29.45;;;18.33;;
22614;SDS011;11474;50.790;0.298;2023-05-13T02:47:55;30.17;;;17.88;;
22614;SDS011;11474;50.790;0.298;2023-05-13T02:50:21;31.90;;;19.17;;
22614;SDS011;11474;50.790;0.298;2023-05-13T02:52:47;36.75;;;19.00;;
22614;SDS011;11474;50.790;0.298;2023-05-13T02:55:13;31.25;;;18.52;;
22614;SDS011;11474;50.790;0.298;2023-05-13T02:57:39;30.65;;;18.52;;
22614;SDS011;11474;50.790;0.298;2023-05-13T03:00:05;29.48;;;17.73;;
22614;SDS011;11474;50.790;0.298;2023-05-13T03:02:32;32.40;;;18.45;;
22614;SDS011;11474;50.790;0.298;2023-05-13T03:04:58;30.30;;;17.63;;
22614;SDS011;11474;50.790;0.298;2023-05-13T03:07:24;31.20;;;16.50;;
22614;SDS011;11474;50.790;0.298;2023-05-13T03:09:50;31.17;;;17.35;;
22614;SDS011;11474;50.790;0.298;2023-05-13T03:12:16;28.95;;;17.30;;
22614;SDS011;11474;50.790;0.298;2023-05-13T03:14:42;27.33;;;17.25;;
22614;SDS011;11474;50.790;0.298;2023-05-13T03:17:09;28.20;;;17.92;;
22614;SDS011;11474;50.790;0.298;2023-05-13T03:19:36;24.23;;;16.33;;
22614;SDS011;11474;50.790;0.298;2023-05-13T03:22:02;31.17;;;15.95;;
22614;SDS011;11474;50.790;0.298;2023-05-13T03:24:28;31.55;;;15.95;;
22614;SDS011;11474;50.790;0.298;2023-05-13T03:26:55;27.13;;;16.33;;
22614;SDS011;11474;50.790;0.298;2023-05-13T03:29:21;27.42;;;15.77;;
22614;SDS011;11474;50.790;0.298;2023-05-13T03:31:47;26.75;;;14.68;;
22614;SDS011;11474;50.790;0.298;2023-05-13T03:34:14;24.38;;;14.25;;
22614;SDS011;11474;50.790;0.298;2023-05-13T03:36:40;24.67;;;14.32;;
22614;SDS011;11474;50.790;0.298;2023-05-13T03:39:06;25.40;;;14.30;;
22614;SDS011;11474;50.790;0.298;2023-05-13T03:41:32;25.33;;;13.85;;
22614;SDS011;11474;50.790;0.298;2023-05-13T03:43:58;24.92;;;13.55;;
22614;SDS011;11474;50.790;0.298;2023-05-13T03:46:24;29.15;;;14.32;;
22614;SDS011;11474;50.790;0.298;2023-05-13T03:48:54;26.48;;;14.82;;
22614;SDS011;11474;50.790;0.298;2023-05-13T03:51:23;28.35;;;14.95;;
22614;SDS011;11474;50.790;0.298;2023-05-13T03:53:49;27.45;;;13.60;;
22614;SDS011;11474;50.790;0.298;2023-05-13T03:56:15;27.50;;;14.70;;
22614;SDS011;11474;50.790;0.298;2023-05-13T03:58:41;26.38;;;14.73;;
22614;SDS011;11474;50.790;0.298;2023-05-13T04:01:07;25.00;;;14.87;;
22614;SDS011;11474;50.790;0.298;2023-05-13T04:03:33;31.23;;;15.00;;
22614;SDS011;11474;50.790;0.298;2023-05-13T04:05:59;23.13;;;13.83;;
22614;SDS011;11474;50.790;0.298;2023-05-13T04:08:25;28.25;;;14.60;;
22614;SDS011;11474;50.790;0.298;2023-05-13T04:10:51;26.83;;;13.13;;
22614;SDS011;11474;50.790;0.298;2023-05-13T04:13:18;24.63;;;13.10;;
22614;SDS011;11474;50.790;0.298;2023-05-13T04:15:44;25.40;;;13.45;;
22614;SDS011;11474;50.790;0.298;2023-05-13T04:18:10;23.27;;;14.30;;
22614;SDS011;11474;50.790;0.298;2023-05-13T04:20:36;28.08;;;13.85;;
22614;SDS011;11474;50.790;0.298;2023-05-13T04:23:06;24.95;;;13.55;;
22614;SDS011;11474;50.790;0.298;2023-05-13T04:25:33;30.00;;;14.65;;
22614;SDS011;11474;50.790;0.298;2023-05-13T04:28:01;25.63;;;14.07;;
22614;SDS011;11474;50.790;0.298;2023-05-13T04:30:28;24.55;;;13.73;;
22614;SDS011;11474;50.790;0.298;2023-05-13T04:32:54;27.00;;;14.27;;
22614;SDS011;11474;50.790;0.298;2023-05-13T04:35:20;27.83;;;14.18;;
22614;SDS011;11474;50.790;0.298;2023-05-13T04:37:46;26.27;;;14.07;;
22614;SDS011;11474;50.790;0.298;2023-05-13T04:40:13;25.55;;;13.73;;
22614;SDS011;11474;50.790;0.298;2023-05-13T04:42:39;23.60;;;13.00;;
22614;SDS011;11474;50.790;0.298;2023-05-13T04:45:06;26.83;;;13.83;;
22614;SDS011;11474;50.790;0.298;2023-05-13T04:47:32;24.70;;;13.50;;
22614;SDS011;11474;50.790;0.298;2023-05-13T04:49:59;30.50;;;13.70;;
22614;SDS011;11474;50.790;0.298;2023-05-13T04:52:25;24.47;;;13.93;;
22614;SDS011;11474;50.790;0.298;2023-05-13T04:54:51;25.08;;;14.05;;
22614;SDS011;11474;50.790;0.298;2023-05-13T04:57:17;24.37;;;14.27;;
22614;SDS011;11474;50.790;0.298;2023-05-13T04:59:43;23.52;;;13.73;;
22614;SDS011;11474;50.790;0.298;2023-05-13T05:02:09;26.43;;;14.17;;
22614;SDS011;11474;50.790;0.298;2023-05-13T05:04:35;26.58;;;14.38;;
22614;SDS011;11474;50.790;0.298;2023-05-13T05:07:01;27.97;;;14.13;;
22614;SDS011;11474;50.790;0.298;2023-05-13T05:09:27;29.30;;;15.25;;
22614;SDS011;11474;50.790;0.298;2023-05-13T05:11:54;27.05;;;14.35;;
22614;SDS011;11474;50.790;0.298;2023-05-13T05:14:20;27.70;;;14.17;;
22614;SDS011;11474;50.790;0.298;2023-05-13T05:16:46;29.67;;;14.50;;
22614;SDS011;11474;50.790;0.298;2023-05-13T05:19:12;28.07;;;14.47;;
22614;SDS011;11474;50.790;0.298;2023-05-13T05:21:38;24.02;;;14.10;;
22614;SDS011;11474;50.790;0.298;2023-05-13T05:24:04;27.33;;;13.90;;
22614;SDS011;11474;50.790;0.298;2023-05-13T05:26:33;28.07;;;14.10;;
22614;SDS011;11474;50.790;0.298;2023-05-13T05:28:59;24.27;;;14.45;;
22614;SDS011;11474;50.790;0.298;2023-05-13T05:31:25;22.35;;;14.18;;
22614;SDS011;11474;50.790;0.298;2023-05-13T05:33:51;24.25;;;14.27;;
22614;SDS011;11474;50.790;0.298;2023-05-13T05:36:17;23.83;;;14.57;;
22614;SDS011;11474;50.790;0.298;2023-05-13T05:38:43;26.67;;;14.35;;
22614;SDS011;11474;50.790;0.298;2023-05-13T05:41:11;25.57;;;14.23;;
22614;SDS011;11474;50.790;0.298;2023-05-13T05:43:37;23.70;;;13.83;;
22614;SDS011;11474;50.790;0.298;2023-05-13T05:46:04;27.73;;;13.73;;
22614;SDS011;11474;50.790;0.298;2023-05-13T05:48:30;24.65;;;14.70;;
22614;SDS011;11474;50.790;0.298;2023-05-13T05:50:56;26.53;;;14.30;;
22614;SDS011;11474;50.790;0.298;2023-05-13T05:53:22;24.42;;;14.82;;
22614;SDS011;11474;50.790;0.298;2023-05-13T05:55:48;25.07;;;14.47;;
22614;SDS011;11474;50.790;0.298;2023-05-13T05:58:14;28.08;;;14.63;;
22614;SDS011;11474;50.790;0.298;2023-05-13T06:00:40;26.63;;;15.25;;
22614;SDS011;11474;50.790;0.298;2023-05-13T06:03:07;22.23;;;14.32;;
22614;SDS011;11474;50.790;0.298;2023-05-13T06:05:33;24.15;;;14.75;;
22614;SDS011;11474;50.790;0.298;2023-05-13T06:07:59;24.08;;;14.98;;
22614;SDS011;11474;50.790;0.298;2023-05-13T06:10:25;28.02;;;15.50;;
22614;SDS011;11474;50.790;0.298;2023-05-13T06:12:51;25.02;;;15.40;;
22614;SDS011;11474;50.790;0.298;2023-05-13T06:15:17;26.33;;;15.55;;
22614;SDS011;11474;50.790;0.298;2023-05-13T06:17:43;29.23;;;15.50;;
22614;SDS011;11474;50.790;0.298;2023-05-13T06:20:09;22.90;;;14.15;;
22614;SDS011;11474;50.790;0.298;2023-05-13T06:22:36;24.60;;;14.48;;
22614;SDS011;11474;50.790;0.298;2023-05-13T06:25:02;25.88;;;15.23;;
22614;SDS011;11474;50.790;0.298;2023-05-13T06:27:28;29.33;;;15.40;;
22614;SDS011;11474;50.790;0.298;2023-05-13T06:29:54;27.25;;;15.55;;
22614;SDS011;11474;50.790;0.298;2023-05-13T06:32:20;25.08;;;15.32;;
22614;SDS011;11474;50.790;0.298;2023-05-13T06:34:46;24.23;;;14.95;;
22614;SDS011;11474;50.790;0.298;2023-05-13T06:37:12;26.60;;;15.02;;
22614;SDS011;11474;50.790;0.298;2023-05-13T06:39:39;26.65;;;15.68;;
22614;SDS011;11474;50.790;0.298;2023-05-13T06:42:05;25.52;;;15.52;;
22614;SDS011;11474;50.790;0.298;2023-05-13T06:44:31;26.98;;;15.23;;
22614;SDS011;11474;50.790;0.298;2023-05-13T06:46:57;25.13;;;15.45;;
22614;SDS011;11474;50.790;0.298;2023-05-13T06:49:23;23.15;;;14.40;;
22614;SDS011;11474;50.790;0.298;2023-05-13T06:51:49;25.83;;;15.15;;
22614;SDS011;11474;50.790;0.298;2023-05-13T06:54:16;26.05;;;14.65;;
22614;SDS011;11474;50.790;0.298;2023-05-13T06:56:42;25.80;;;14.30;;
22614;SDS011;11474;50.790;0.298;2023-05-13T06:59:08;25.85;;;14.13;;
22614;SDS011;11474;50.790;0.298;2023-05-13T07:01:34;27.33;;;14.97;;
22614;SDS011;11474;50.790;0.298;2023-05-13T07:04:00;26.58;;;14.50;;
22614;SDS011;11474;50.790;0.298;2023-05-13T07:06:26;24.07;;;13.80;;
22614;SDS011;11474;50.790;0.298;2023-05-13T07:08:52;29.42;;;14.88;;
22614;SDS011;11474;50.790;0.298;2023-05-13T07:11:19;25.17;;;13.67;;
22614;SDS011;11474;50.790;0.298;2023-05-13T07:13:45;26.88;;;13.68;;
22614;SDS011;11474;50.790;0.298;2023-05-13T07:16:12;28.85;;;14.60;;
22614;SDS011;11474;50.790;0.298;2023-05-13T07:18:39;27.83;;;14.38;;
22614;SDS011;11474;50.790;0.298;2023-05-13T07:21:05;22.38;;;13.23;;
22614;SDS011;11474;50.790;0.298;2023-05-13T07:23:31;26.23;;;13.80;;
22614;SDS011;11474;50.790;0.298;2023-05-13T07:25:57;24.37;;;14.10;;
22614;SDS011;11474;50.790;0.298;2023-05-13T07:28:23;24.50;;;13.10;;
22614;SDS011;11474;50.790;0.298;2023-05-13T07:30:49;26.50;;;13.75;;
22614;SDS011;11474;50.790;0.298;2023-05-13T07:33:17;25.45;;;13.05;;
22614;SDS011;11474;50.790;0.298;2023-05-13T07:35:43;21.80;;;12.65;;
22614;SDS011;11474;50.790;0.298;2023-05-13T07:38:09;22.92;;;13.85;;
22614;SDS011;11474;50.790;0.298;2023-05-13T07:40:36;26.73;;;13.82;;
22614;SDS011;11474;50.790;0.298;2023-05-13T07:43:02;22.25;;;12.95;;
22614;SDS011;11474;50.790;0.298;2023-05-13T07:45:28;24.00;;;13.27;;
22614;SDS011;11474;50.790;0.298;2023-05-13T07:47:54;28.10;;;14.23;;
22614;SDS011;11474;50.790;0.298;2023-05-13T07:50:20;23.48;;;13.05;;
22614;SDS011;11474;50.790;0.298;2023-05-13T07:52:46;23.33;;;13.37;;
22614;SDS011;11474;50.790;0.298;2023-05-13T07:55:16;25.77;;;13.20;;
22614;SDS011;11474;50.790;0.298;2023-05-13T07:57:42;22.33;;;13.15;;
22614;SDS011;11474;50.790;0.298;2023-05-13T08:00:08;21.67;;;13.13;;
22614;SDS011;11474;50.790;0.298;2023-05-13T08:02:37;25.17;;;13.63;;
22614;SDS011;11474;50.790;0.298;2023-05-13T08:05:04;25.67;;;12.77;;
22614;SDS011;11474;50.790;0.298;2023-05-13T08:07:30;26.65;;;13.43;;
22614;SDS011;11474;50.790;0.298;2023-05-13T08:09:56;23.45;;;13.45;;
22614;SDS011;11474;50.790;0.298;2023-05-13T08:12:22;22.80;;;12.52;;
22614;SDS011;11474;50.790;0.298;2023-05-13T08:14:49;21.15;;;12.65;;
22614;SDS011;11474;50.790;0.298;2023-05-13T08:17:15;25.77;;;13.03;;
22614;SDS011;11474;50.790;0.298;2023-05-13T08:19:43;28.73;;;13.10;;
22614;SDS011;11474;50.790;0.298;2023-05-13T08:22:10;21.40;;;11.75;;
22614;SDS011;11474;50.790;0.298;2023-05-13T08:24:36;27.08;;;13.23;;
22614;SDS011;11474;50.790;0.298;2023-05-13T08:27:04;20.52;;;12.70;;
22614;SDS011;11474;50.790;0.298;2023-05-13T08:29:30;21.02;;;11.88;;
22614;SDS011;11474;50.790;0.298;2023-05-13T08:31:56;21.20;;;11.83;;
22614;SDS011;11474;50.790;0.298;2023-05-13T08:34:23;22.38;;;12.73;;
22614;SDS011;11474;50.790;0.298;2023-05-13T08:36:50;22.98;;;12.93;;
22614;SDS011;11474;50.790;0.298;2023-05-13T08:39:16;21.63;;;12.63;;
22614;SDS011;11474;50.790;0.298;2023-05-13T08:41:43;22.45;;;12.07;;
22614;SDS011;11474;50.790;0.298;2023-05-13T08:44:10;21.20;;;11.93;;
22614;SDS011;11474;50.790;0.298;2023-05-13T08:46:37;23.13;;;12.10;;
22614;SDS011;11474;50.790;0.298;2023-05-13T08:49:06;21.07;;;12.30;;
22614;SDS011;11474;50.790;0.298;2023-05-13T08:51:32;20.85;;;12.20;;
22614;SDS011;11474;50.790;0.298;2023-05-13T08:53:58;20.53;;;10.80;;
22614;SDS011;11474;50.790;0.298;2023-05-13T08:56:26;22.02;;;12.15;;
22614;SDS011;11474;50.790;0.298;2023-05-13T08:58:53;22.17;;;12.60;;
22614;SDS011;11474;50.790;0.298;2023-05-13T09:01:20;22.75;;;11.23;;
22614;SDS011;11474;50.790;0.298;2023-05-13T09:03:55;24.23;;;11.60;;
22614;SDS011;11474;50.790;0.298;2023-05-13T09:06:23;20.90;;;11.60;;
22614;SDS011;11474;50.790;0.298;2023-05-13T09:08:49;18.05;;;11.68;;
22614;SDS011;11474;50.790;0.298;2023-05-13T09:11:16;21.80;;;11.03;;
22614;SDS011;11474;50.790;0.298;2023-05-13T09:13:42;19.13;;;11.10;;
22614;SDS011;11474;50.790;0.298;2023-05-13T09:16:09;20.98;;;11.85;;
22614;SDS011;11474;50.790;0.298;2023-05-13T09:18:36;20.10;;;12.20;;
22614;SDS011;11474;50.790;0.298;2023-05-13T09:21:23;20.15;;;11.50;;
22614;SDS011;11474;50.790;0.298;2023-05-13T09:23:49;18.57;;;11.33;;
22614;SDS011;11474;50.790;0.298;2023-05-13T09:26:28;26.30;;;11.93;;
22614;SDS011;11474;50.790;0.298;2023-05-13T09:31:39;19.75;;;10.60;;
22614;SDS011;11474;50.790;0.298;2023-05-13T09:34:05;19.88;;;10.48;;
22614;SDS011;11474;50.790;0.298;2023-05-13T09:36:32;20.10;;;10.05;;
22614;SDS011;11474;50.790;0.298;2023-05-13T09:38:58;18.25;;;10.10;;
22614;SDS011;11474;50.790;0.298;2023-05-13T09:41:29;20.42;;;9.73;;
22614;SDS011;11474;50.790;0.298;2023-05-13T09:44:00;20.98;;;10.30;;
22614;SDS011;11474;50.790;0.298;2023-05-13T09:46:27;16.63;;;9.75;;
22614;SDS011;11474;50.790;0.298;2023-05-13T09:48:55;17.77;;;10.23;;
22614;SDS011;11474;50.790;0.298;2023-05-13T09:51:25;20.90;;;9.85;;
22614;SDS011;11474;50.790;0.298;2023-05-13T09:53:52;16.02;;;10.27;;
22614;SDS011;11474;50.790;0.298;2023-05-13T09:56:19;19.30;;;9.77;;
22614;SDS011;11474;50.790;0.298;2023-05-13T09:58:50;21.33;;;9.90;;
22614;SDS011;11474;50.790;0.298;2023-05-13T10:01:17;18.17;;;9.70;;
22614;SDS011;11474;50.790;0.298;2023-05-13T10:03:44;18.17;;;9.40;;
22614;SDS011;11474;50.790;0.298;2023-05-13T10:06:14;18.88;;;9.73;;
22614;SDS011;11474;50.790;0.298;2023-05-13T10:08:46;15.73;;;9.35;;
22614;SDS011;11474;50.790;0.298;2023-05-13T10:11:13;17.60;;;9.50;;
22614;SDS011;11474;50.790;0.298;2023-05-13T10:13:41;17.35;;;9.25;;
22614;SDS011;11474;50.790;0.298;2023-05-13T10:16:08;15.77;;;8.80;;
22614;SDS011;11474;50.790;0.298;2023-05-13T10:18:34;14.43;;;8.90;;
22614;SDS011;11474;50.790;0.298;2023-05-13T10:21:00;14.18;;;8.30;;
22614;SDS011;11474;50.790;0.298;2023-05-13T10:23:28;17.90;;;8.90;;
22614;SDS011;11474;50.790;0.298;2023-05-13T10:25:54;14.93;;;9.23;;
22614;SDS011;11474;50.790;0.298;2023-05-13T10:28:20;18.25;;;8.77;;
22614;SDS011;11474;50.790;0.298;2023-05-13T10:30:49;16.47;;;8.47;;
22614;SDS011;11474;50.790;0.298;2023-05-13T10:33:16;17.20;;;9.20;;
22614;SDS011;11474;50.790;0.298;2023-05-13T10:35:45;18.55;;;8.70;;
22614;SDS011;11474;50.790;0.298;2023-05-13T10:43:28;16.23;;;8.38;;
22614;SDS011;11474;50.790;0.298;2023-05-13T10:48:23;15.82;;;8.88;;
22614;SDS011;11474;50.790;0.298;2023-05-13T10:50:57;14.73;;;8.60;;
22614;SDS011;11474;50.790;0.298;2023-05-13T10:53:34;16.70;;;8.10;;
22614;SDS011;11474;50.790;0.298;2023-05-13T10:56:01;18.80;;;8.52;;
22614;SDS011;11474;50.790;0.298;2023-05-13T10:58:33;14.98;;;8.70;;
22614;SDS011;11474;50.790;0.298;2023-05-13T11:01:13;15.85;;;8.23;;
22614;SDS011;11474;50.790;0.298;2023-05-13T11:03:39;17.13;;;8.38;;
22614;SDS011;11474;50.790;0.298;2023-05-13T11:08:38;14.23;;;8.23;;
22614;SDS011;11474;50.790;0.298;2023-05-13T11:11:17;17.50;;;8.45;;
22614;SDS011;11474;50.790;0.298;2023-05-13T11:13:51;15.98;;;8.55;;
22614;SDS011;11474;50.790;0.298;2023-05-13T11:16:17;15.70;;;8.18;;
22614;SDS011;11474;50.790;0.298;2023-05-13T11:18:43;18.53;;;8.03;;
22614;SDS011;11474;50.790;0.298;2023-05-13T11:21:09;17.30;;;8.07;;
22614;SDS011;11474;50.790;0.298;2023-05-13T11:26:20;15.00;;;8.07;;
22614;SDS011;11474;50.790;0.298;2023-05-13T11:31:26;15.23;;;8.35;;
22614;SDS011;11474;50.790;0.298;2023-05-13T11:34:09;14.68;;;7.75;;
22614;SDS011;11474;50.790;0.298;2023-05-13T11:36:36;15.60;;;7.28;;
22614;SDS011;11474;50.790;0.298;2023-05-13T11:39:09;16.27;;;7.68;;
22614;SDS011;11474;50.790;0.298;2023-05-13T11:41:39;14.93;;;7.18;;
22614;SDS011;11474;50.790;0.298;2023-05-13T11:44:06;18.42;;;8.60;;
22614;SDS011;11474;50.790;0.298;2023-05-13T11:46:32;13.27;;;7.17;;
22614;SDS011;11474;50.790;0.298;2023-05-13T11:48:59;14.07;;;8.33;;
22614;SDS011;11474;50.790;0.298;2023-05-13T11:51:25;13.95;;;8.10;;
22614;SDS011;11474;50.790;0.298;2023-05-13T11:53:51;19.13;;;8.65;;
22614;SDS011;11474;50.790;0.298;2023-05-13T11:56:25;13.57;;;8.18;;
22614;SDS011;11474;50.790;0.298;2023-05-13T11:58:52;15.82;;;7.90;;
22614;SDS011;11474;50.790;0.298;2023-05-13T12:01:18;17.50;;;8.32;;
22614;SDS011;11474;50.790;0.298;2023-05-13T12:03:45;17.17;;;7.80;;
22614;SDS011;11474;50.790;0.298;2023-05-13T12:06:11;14.40;;;7.93;;
22614;SDS011;11474;50.790;0.298;2023-05-13T12:08:44;14.50;;;8.05;;
22614;SDS011;11474;50.790;0.298;2023-05-13T12:11:12;14.25;;;7.65;;
22614;SDS011;11474;50.790;0.298;2023-05-13T12:13:40;16.65;;;8.30;;
22614;SDS011;11474;50.790;0.298;2023-05-13T12:16:07;13.70;;;7.80;;
22614;SDS011;11474;50.790;0.298;2023-05-13T12:18:33;17.25;;;7.97;;
22614;SDS011;11474;50.790;0.298;2023-05-13T12:20:59;15.00;;;7.53;;
22614;SDS011;11474;50.790;0.298;2023-05-13T12:23:25;15.77;;;8.10;;
22614;SDS011;11474;50.790;0.298;2023-05-13T12:25:51;17.58;;;7.70;;
22614;SDS011;11474;50.790;0.298;2023-05-13T12:33:15;15.20;;;8.02;;
22614;SDS011;11474;50.790;0.298;2023-05-13T12:35:41;16.02;;;8.30;;
22614;SDS011;11474;50.790;0.298;2023-05-13T12:38:12;13.73;;;7.15;;
22614;SDS011;11474;50.790;0.298;2023-05-13T12:40:38;13.43;;;7.53;;
22614;SDS011;11474;50.790;0.298;2023-05-13T12:43:04;13.40;;;7.53;;
22614;SDS011;11474;50.790;0.298;2023-05-13T12:45:31;12.38;;;7.72;;
22614;SDS011;11474;50.790;0.298;2023-05-13T12:47:58;18.52;;;7.53;;
22614;SDS011;11474;50.790;0.298;2023-05-13T12:50:25;13.45;;;7.57;;
22614;SDS011;11474;50.790;0.298;2023-05-13T12:52:51;16.08;;;7.70;;
22614;SDS011;11474;50.790;0.298;2023-05-13T12:55:17;11.70;;;6.90;;
22614;SDS011;11474;50.790;0.298;2023-05-13T12:57:53;13.48;;;7.47;;
22614;SDS011;11474;50.790;0.298;2023-05-13T13:00:19;15.88;;;7.57;;
22614;SDS011;11474;50.790;0.298;2023-05-13T13:02:46;12.45;;;7.50;;
22614;SDS011;11474;50.790;0.298;2023-05-13T13:05:12;16.38;;;7.88;;
22614;SDS011;11474;50.790;0.298;2023-05-13T13:07:38;15.23;;;7.40;;
22614;SDS011;11474;50.790;0.298;2023-05-13T13:10:06;13.77;;;7.60;;
22614;SDS011;11474;50.790;0.298;2023-05-13T13:12:33;16.05;;;7.72;;
22614;SDS011;11474;50.790;0.298;2023-05-13T13:14:59;12.13;;;7.30;;
22614;SDS011;11474;50.790;0.298;2023-05-13T13:17:26;14.80;;;7.43;;
22614;SDS011;11474;50.790;0.298;2023-05-13T13:19:52;16.52;;;8.07;;
22614;SDS011;11474;50.790;0.298;2023-05-13T13:22:18;19.08;;;8.00;;
22614;SDS011;11474;50.790;0.298;2023-05-13T13:24:44;12.80;;;7.50;;
22614;SDS011;11474;50.790;0.298;2023-05-13T13:27:10;17.75;;;7.85;;
22614;SDS011;11474;50.790;0.298;2023-05-13T13:29:36;14.63;;;8.00;;
22614;SDS011;11474;50.790;0.298;2023-05-13T13:32:02;17.10;;;7.22;;
22614;SDS011;11474;50.790;0.298;2023-05-13T13:34:28;14.23;;;7.53;;
22614;SDS011;11474;50.790;0.298;2023-05-13T13:36:55;17.52;;;7.93;;
22614;SDS011;11474;50.790;0.298;2023-05-13T13:39:21;15.80;;;7.85;;
22614;SDS011;11474;50.790;0.298;2023-05-13T13:41:47;13.13;;;7.75;;
22614;SDS011;11474;50.790;0.298;2023-05-13T13:44:13;12.90;;;7.75;;
22614;SDS011;11474;50.790;0.298;2023-05-13T13:46:39;13.80;;;7.90;;
22614;SDS011;11474;50.790;0.298;2023-05-13T13:49:05;15.63;;;7.88;;
22614;SDS011;11474;50.790;0.298;2023-05-13T13:51:31;15.85;;;8.68;;
22614;SDS011;11474;50.790;0.298;2023-05-13T13:54:03;14.98;;;8.38;;
22614;SDS011;11474;50.790;0.298;2023-05-13T13:56:30;13.23;;;8.07;;
22614;SDS011;11474;50.790;0.298;2023-05-13T13:58:56;14.05;;;7.82;;
22614;SDS011;11474;50.790;0.298;2023-05-13T14:01:22;13.68;;;7.70;;
22614;SDS011;11474;50.790;0.298;2023-05-13T14:03:48;11.38;;;6.88;;
22614;SDS011;11474;50.790;0.298;2023-05-13T14:06:14;15.00;;;7.30;;
22614;SDS011;11474;50.790;0.298;2023-05-13T14:08:41;16.60;;;8.10;;
22614;SDS011;11474;50.790;0.298;2023-05-13T14:11:07;13.98;;;7.78;;
22614;SDS011;11474;50.790;0.298;2023-05-13T14:13:33;15.10;;;7.80;;
22614;SDS011;11474;50.790;0.298;2023-05-13T14:15:59;15.18;;;7.35;;
22614;SDS011;11474;50.790;0.298;2023-05-13T14:18:25;12.43;;;6.93;;
22614;SDS011;11474;50.790;0.298;2023-05-13T14:20:51;12.00;;;7.18;;
22614;SDS011;11474;50.790;0.298;2023-05-13T14:23:17;13.77;;;7.32;;
22614;SDS011;11474;50.790;0.298;2023-05-13T14:25:44;11.65;;;7.07;;
22614;SDS011;11474;50.790;0.298;2023-05-13T14:28:10;13.23;;;6.97;;
22614;SDS011;11474;50.790;0.298;2023-05-13T14:30:37;14.73;;;7.37;;
22614;SDS011;11474;50.790;0.298;2023-05-13T14:33:03;13.80;;;7.90;;
22614;SDS011;11474;50.790;0.298;2023-05-13T14:35:29;15.40;;;7.78;;
22614;SDS011;11474;50.790;0.298;2023-05-13T14:37:55;14.57;;;7.97;;
22614;SDS011;11474;50.790;0.298;2023-05-13T14:40:22;13.90;;;7.75;;
22614;SDS011;11474;50.790;0.298;2023-05-13T14:42:48;15.02;;;8.10;;
22614;SDS011;11474;50.790;0.298;2023-05-13T14:45:14;14.05;;;8.18;;
22614;SDS011;11474;50.790;0.298;2023-05-13T14:47:40;14.13;;;7.60;;
22614;SDS011;11474;50.790;0.298;2023-05-13T14:50:09;14.02;;;7.40;;
22614;SDS011;11474;50.790;0.298;2023-05-13T14:52:36;14.30;;;7.37;;